sensor_id;sensor_type;location;lat;lon;timestamp;P1;durP1;ratioP1;P2;durP2;ratioP2
40373;SDS011;26079;45.958;12.492;2023-05-13T00:01:41;40.63;;;38.58;;
40373;SDS011;26079;45.958;12.492;2023-05-13T00:04:07;39.92;;;37.90;;
40373;SDS011;26079;45.958;12.492;2023-05-13T00:06:33;45.97;;;42.58;;
40373;SDS011;26079;45.958;12.492;2023-05-13T00:08:59;44.15;;;41.90;;
40373;SDS011;26079;45.958;12.492;2023-05-13T00:11:25;45.13;;;42.80;;
40373;SDS011;26079;45.958;12.492;2023-05-13T00:13:51;39.88;;;37.80;;
40373;SDS011;26079;45.958;12.492;2023-05-13T00:16:17;48.40;;;45.35;;
40373;SDS011;26079;45.958;12.492;2023-05-13T00:18:43;54.10;;;50.95;;
40373;SDS011;26079;45.958;12.492;2023-05-13T00:21:10;62.30;;;59.05;;
40373;SDS011;26079;45.958;12.492;2023-05-13T00:23:35;65.50;;;62.00;;
40373;SDS011;26079;45.958;12.492;2023-05-13T00:26:01;55.28;;;52.42;;
40373;SDS011;26079;45.958;12.492;2023-05-13T00:28:27;43.70;;;41.42;;
40373;SDS011;26079;45.958;12.492;2023-05-13T00:30:53;47.47;;;44.33;;
40373;SDS011;26079;45.958;12.492;2023-05-13T00:33:19;43.10;;;40.75;;
40373;SDS011;26079;45.958;12.492;2023-05-13T00:35:44;44.17;;;41.80;;
40373;SDS011;26079;45.958;12.492;2023-05-13T00:38:10;61.80;;;58.15;;
40373;SDS011;26079;45.958;12.492;2023-05-13T00:40:36;63.22;;;59.90;;
40373;SDS011;26079;45.958;12.492;2023-05-13T00:43:06;51.75;;;48.70;;
40373;SDS011;26079;45.958;12.492;2023-05-13T00:45:31;52.90;;;50.03;;
40373;SDS011;26079;45.958;12.492;2023-05-13T00:47:57;53.78;;;51.00;;
40373;SDS011;26079;45.958;12.492;2023-05-13T00:50:24;47.90;;;45.13;;
40373;SDS011;26079;45.958;12.492;2023-05-13T00:52:49;52.95;;;50.22;;
40373;SDS011;26079;45.958;12.492;2023-05-13T00:55:15;52.40;;;48.97;;
40373;SDS011;26079;45.958;12.492;2023-05-13T00:57:41;52.05;;;49.40;;
40373;SDS011;26079;45.958;12.492;2023-05-13T01:00:08;55.45;;;52.45;;
40373;SDS011;26079;45.958;12.492;2023-05-13T01:10:46;45.42;;;43.10;;
40373;SDS011;26079;45.958;12.492;2023-05-13T01:15:52;29.98;;;28.42;;
40373;SDS011;26079;45.958;12.492;2023-05-13T01:18:31;40.78;;;38.63;;
40373;SDS011;26079;45.958;12.492;2023-05-13T01:21:01;39.08;;;36.97;;
40373;SDS011;26079;45.958;12.492;2023-05-13T01:23:29;44.08;;;41.85;;
40373;SDS011;26079;45.958;12.492;2023-05-13T01:25:54;41.72;;;39.55;;
40373;SDS011;26079;45.958;12.492;2023-05-13T01:28:20;39.15;;;37.03;;
40373;SDS011;26079;45.958;12.492;2023-05-13T01:30:46;43.33;;;41.03;;
40373;SDS011;26079;45.958;12.492;2023-05-13T01:33:13;47.38;;;44.88;;
40373;SDS011;26079;45.958;12.492;2023-05-13T01:35:40;48.38;;;45.55;;
40373;SDS011;26079;45.958;12.492;2023-05-13T01:38:07;39.22;;;37.17;;
40373;SDS011;26079;45.958;12.492;2023-05-13T01:40:33;42.80;;;40.53;;
40373;SDS011;26079;45.958;12.492;2023-05-13T01:42:59;41.15;;;38.92;;
40373;SDS011;26079;45.958;12.492;2023-05-13T01:45:28;41.97;;;39.85;;
40373;SDS011;26079;45.958;12.492;2023-05-13T01:47:54;41.65;;;39.45;;
40373;SDS011;26079;45.958;12.492;2023-05-13T01:50:20;49.40;;;46.83;;
40373;SDS011;26079;45.958;12.492;2023-05-13T01:52:46;51.42;;;48.80;;
40373;SDS011;26079;45.958;12.492;2023-05-13T01:55:11;48.88;;;46.33;;
40373;SDS011;26079;45.958;12.492;2023-05-13T01:57:37;46.92;;;44.53;;
40373;SDS011;26079;45.958;12.492;2023-05-13T02:00:03;44.00;;;41.78;;
40373;SDS011;26079;45.958;12.492;2023-05-13T02:02:30;42.97;;;40.47;;
40373;SDS011;26079;45.958;12.492;2023-05-13T02:04:55;40.20;;;37.60;;
40373;SDS011;26079;45.958;12.492;2023-05-13T02:07:21;42.33;;;40.03;;
40373;SDS011;26079;45.958;12.492;2023-05-13T02:09:47;45.15;;;42.78;;
40373;SDS011;26079;45.958;12.492;2023-05-13T02:12:12;43.35;;;41.03;;
40373;SDS011;26079;45.958;12.492;2023-05-13T02:14:38;37.78;;;35.80;;
40373;SDS011;26079;45.958;12.492;2023-05-13T02:17:04;34.97;;;33.20;;
40373;SDS011;26079;45.958;12.492;2023-05-13T02:19:29;35.03;;;33.13;;
40373;SDS011;26079;45.958;12.492;2023-05-13T02:21:55;35.45;;;33.65;;
40373;SDS011;26079;45.958;12.492;2023-05-13T02:24:21;32.25;;;30.67;;
40373;SDS011;26079;45.958;12.492;2023-05-13T02:26:46;32.28;;;30.63;;
40373;SDS011;26079;45.958;12.492;2023-05-13T02:29:12;31.15;;;29.52;;
40373;SDS011;26079;45.958;12.492;2023-05-13T02:31:38;34.92;;;33.13;;
40373;SDS011;26079;45.958;12.492;2023-05-13T02:34:07;37.53;;;35.60;;
40373;SDS011;26079;45.958;12.492;2023-05-13T02:36:33;38.30;;;36.25;;
40373;SDS011;26079;45.958;12.492;2023-05-13T02:38:58;37.33;;;35.22;;
40373;SDS011;26079;45.958;12.492;2023-05-13T02:41:24;40.63;;;38.08;;
40373;SDS011;26079;45.958;12.492;2023-05-13T02:43:50;35.80;;;33.35;;
40373;SDS011;26079;45.958;12.492;2023-05-13T02:46:15;35.88;;;33.55;;
40373;SDS011;26079;45.958;12.492;2023-05-13T02:48:41;43.80;;;41.25;;
40373;SDS011;26079;45.958;12.492;2023-05-13T02:51:06;45.63;;;42.95;;
40373;SDS011;26079;45.958;12.492;2023-05-13T02:53:33;39.95;;;37.83;;
40373;SDS011;26079;45.958;12.492;2023-05-13T02:55:59;46.40;;;43.50;;
40373;SDS011;26079;45.958;12.492;2023-05-13T02:58:24;46.25;;;43.85;;
40373;SDS011;26079;45.958;12.492;2023-05-13T03:00:50;48.78;;;46.08;;
40373;SDS011;26079;45.958;12.492;2023-05-13T03:03:16;47.35;;;44.90;;
40373;SDS011;26079;45.958;12.492;2023-05-13T03:05:41;50.65;;;48.05;;
40373;SDS011;26079;45.958;12.492;2023-05-13T03:08:07;52.30;;;49.53;;
40373;SDS011;26079;45.958;12.492;2023-05-13T03:10:33;50.83;;;48.15;;
40373;SDS011;26079;45.958;12.492;2023-05-13T03:12:58;49.40;;;40.20;;
40373;SDS011;26079;45.958;12.492;2023-05-13T03:15:24;48.95;;;46.08;;
40373;SDS011;26079;45.958;12.492;2023-05-13T03:17:50;40.75;;;36.90;;
40373;SDS011;26079;45.958;12.492;2023-05-13T03:20:16;50.35;;;47.38;;
40373;SDS011;26079;45.958;12.492;2023-05-13T03:22:41;41.70;;;39.47;;
40373;SDS011;26079;45.958;12.492;2023-05-13T03:25:07;45.63;;;43.25;;
40373;SDS011;26079;45.958;12.492;2023-05-13T03:27:33;53.95;;;51.08;;
40373;SDS011;26079;45.958;12.492;2023-05-13T03:29:59;47.17;;;44.50;;
40373;SDS011;26079;45.958;12.492;2023-05-13T03:32:24;54.95;;;51.80;;
40373;SDS011;26079;45.958;12.492;2023-05-13T03:34:54;53.72;;;50.83;;
40373;SDS011;26079;45.958;12.492;2023-05-13T03:37:25;48.70;;;46.13;;
40373;SDS011;26079;45.958;12.492;2023-05-13T03:39:51;52.10;;;49.33;;
40373;SDS011;26079;45.958;12.492;2023-05-13T03:42:17;47.20;;;44.60;;
40373;SDS011;26079;45.958;12.492;2023-05-13T03:44:42;45.80;;;43.17;;
40373;SDS011;26079;45.958;12.492;2023-05-13T03:47:08;42.92;;;40.67;;
40373;SDS011;26079;45.958;12.492;2023-05-13T03:49:33;49.15;;;46.13;;
40373;SDS011;26079;45.958;12.492;2023-05-13T03:51:59;45.35;;;43.00;;
40373;SDS011;26079;45.958;12.492;2023-05-13T03:54:25;43.50;;;41.20;;
40373;SDS011;26079;45.958;12.492;2023-05-13T03:56:50;49.88;;;47.22;;
40373;SDS011;26079;45.958;12.492;2023-05-13T03:59:16;46.88;;;44.38;;
40373;SDS011;26079;45.958;12.492;2023-05-13T04:01:41;48.08;;;44.30;;
40373;SDS011;26079;45.958;12.492;2023-05-13T04:04:07;53.17;;;50.10;;
40373;SDS011;26079;45.958;12.492;2023-05-13T04:06:33;50.17;;;47.38;;
40373;SDS011;26079;45.958;12.492;2023-05-13T04:08:58;45.47;;;43.15;;
40373;SDS011;26079;45.958;12.492;2023-05-13T04:11:25;47.60;;;45.13;;
40373;SDS011;26079;45.958;12.492;2023-05-13T04:13:50;54.63;;;51.70;;
40373;SDS011;26079;45.958;12.492;2023-05-13T04:16:16;51.92;;;49.22;;
40373;SDS011;26079;45.958;12.492;2023-05-13T04:18:42;44.88;;;42.55;;
40373;SDS011;26079;45.958;12.492;2023-05-13T04:21:07;43.97;;;41.65;;
40373;SDS011;26079;45.958;12.492;2023-05-13T04:23:34;44.63;;;41.88;;
40373;SDS011;26079;45.958;12.492;2023-05-13T04:25:59;45.85;;;43.47;;
40373;SDS011;26079;45.958;12.492;2023-05-13T04:28:25;52.97;;;50.13;;
40373;SDS011;26079;45.958;12.492;2023-05-13T04:30:51;50.67;;;47.92;;
40373;SDS011;26079;45.958;12.492;2023-05-13T04:33:17;57.55;;;54.45;;
40373;SDS011;26079;45.958;12.492;2023-05-13T04:35:43;66.85;;;63.05;;
40373;SDS011;26079;45.958;12.492;2023-05-13T04:38:09;60.88;;;57.47;;
40373;SDS011;26079;45.958;12.492;2023-05-13T04:40:35;85.15;;;80.03;;
40373;SDS011;26079;45.958;12.492;2023-05-13T04:43:01;97.32;;;90.90;;
40373;SDS011;26079;45.958;12.492;2023-05-13T04:45:27;106.68;;;99.55;;
40373;SDS011;26079;45.958;12.492;2023-05-13T04:47:53;113.60;;;106.22;;
40373;SDS011;26079;45.958;12.492;2023-05-13T04:50:18;133.60;;;123.93;;
40373;SDS011;26079;45.958;12.492;2023-05-13T04:52:44;127.30;;;118.50;;
40373;SDS011;26079;45.958;12.492;2023-05-13T04:55:11;136.57;;;127.32;;
40373;SDS011;26079;45.958;12.492;2023-05-13T04:57:37;124.25;;;116.38;;
40373;SDS011;26079;45.958;12.492;2023-05-13T05:00:02;115.55;;;107.95;;
40373;SDS011;26079;45.958;12.492;2023-05-13T05:02:29;119.88;;;112.15;;
40373;SDS011;26079;45.958;12.492;2023-05-13T05:04:55;139.90;;;130.77;;
40373;SDS011;26079;45.958;12.492;2023-05-13T05:07:21;130.65;;;122.10;;
40373;SDS011;26079;45.958;12.492;2023-05-13T05:09:47;144.07;;;134.27;;
40373;SDS011;26079;45.958;12.492;2023-05-13T05:12:13;158.07;;;147.10;;
40373;SDS011;26079;45.958;12.492;2023-05-13T05:14:39;147.18;;;137.10;;
40373;SDS011;26079;45.958;12.492;2023-05-13T05:17:05;134.05;;;125.95;;
40373;SDS011;26079;45.958;12.492;2023-05-13T05:19:31;120.10;;;112.85;;
40373;SDS011;26079;45.958;12.492;2023-05-13T05:21:56;107.00;;;100.88;;
40373;SDS011;26079;45.958;12.492;2023-05-13T05:24:22;98.57;;;92.75;;
40373;SDS011;26079;45.958;12.492;2023-05-13T05:26:48;100.15;;;94.30;;
40373;SDS011;26079;45.958;12.492;2023-05-13T05:29:13;123.32;;;116.10;;
40373;SDS011;26079;45.958;12.492;2023-05-13T05:31:39;143.40;;;134.25;;
40373;SDS011;26079;45.958;12.492;2023-05-13T05:34:05;157.38;;;146.70;;
40373;SDS011;26079;45.958;12.492;2023-05-13T05:36:30;164.63;;;153.18;;
40373;SDS011;26079;45.958;12.492;2023-05-13T05:38:56;176.75;;;164.43;;
40373;SDS011;26079;45.958;12.492;2023-05-13T05:41:22;180.27;;;167.77;;
40373;SDS011;26079;45.958;12.492;2023-05-13T05:43:47;210.50;;;193.13;;
40373;SDS011;26079;45.958;12.492;2023-05-13T05:46:15;199.80;;;185.32;;
40373;SDS011;26079;45.958;12.492;2023-05-13T05:48:40;191.32;;;177.65;;
40373;SDS011;26079;45.958;12.492;2023-05-13T05:51:06;194.48;;;180.45;;
40373;SDS011;26079;45.958;12.492;2023-05-13T05:53:33;214.23;;;198.20;;
40373;SDS011;26079;45.958;12.492;2023-05-13T05:55:59;238.25;;;220.50;;
40373;SDS011;26079;45.958;12.492;2023-05-13T05:58:25;193.57;;;180.02;;
40373;SDS011;26079;45.958;12.492;2023-05-13T06:00:51;173.35;;;161.25;;
40373;SDS011;26079;45.958;12.492;2023-05-13T06:03:18;180.77;;;168.13;;
40373;SDS011;26079;45.958;12.492;2023-05-13T06:05:44;230.10;;;212.80;;
40373;SDS011;26079;45.958;12.492;2023-05-13T06:08:10;212.10;;;195.85;;
40373;SDS011;26079;45.958;12.492;2023-05-13T06:10:36;215.05;;;198.80;;
40373;SDS011;26079;45.958;12.492;2023-05-13T06:13:02;167.90;;;155.95;;
40373;SDS011;26079;45.958;12.492;2023-05-13T06:15:28;166.05;;;153.85;;
40373;SDS011;26079;45.958;12.492;2023-05-13T06:17:54;159.85;;;148.57;;
40373;SDS011;26079;45.958;12.492;2023-05-13T06:20:21;153.00;;;142.20;;
40373;SDS011;26079;45.958;12.492;2023-05-13T06:22:46;231.20;;;212.82;;
40373;SDS011;26079;45.958;12.492;2023-05-13T06:25:12;184.43;;;169.80;;
40373;SDS011;26079;45.958;12.492;2023-05-13T06:27:38;74.00;;;70.00;;
40373;SDS011;26079;45.958;12.492;2023-05-13T06:30:04;87.43;;;82.07;;
40373;SDS011;26079;45.958;12.492;2023-05-13T06:32:30;69.40;;;65.72;;
40373;SDS011;26079;45.958;12.492;2023-05-13T06:34:56;43.45;;;41.15;;
40373;SDS011;26079;45.958;12.492;2023-05-13T06:37:22;18.23;;;17.10;;
40373;SDS011;26079;45.958;12.492;2023-05-13T06:39:48;30.73;;;29.15;;
40373;SDS011;26079;45.958;12.492;2023-05-13T06:42:13;22.30;;;21.15;;
40373;SDS011;26079;45.958;12.492;2023-05-13T06:44:57;27.63;;;26.20;;
40373;SDS011;26079;45.958;12.492;2023-05-13T06:47:23;35.03;;;33.22;;
40373;SDS011;26079;45.958;12.492;2023-05-13T06:49:49;34.60;;;32.83;;
40373;SDS011;26079;45.958;12.492;2023-05-13T06:52:14;43.15;;;40.90;;
40373;SDS011;26079;45.958;12.492;2023-05-13T06:54:40;41.25;;;39.13;;
40373;SDS011;26079;45.958;12.492;2023-05-13T06:57:05;38.95;;;36.70;;
40373;SDS011;26079;45.958;12.492;2023-05-13T06:59:31;40.40;;;38.35;;
40373;SDS011;26079;45.958;12.492;2023-05-13T07:01:57;65.40;;;61.70;;
40373;SDS011;26079;45.958;12.492;2023-05-13T07:04:23;36.60;;;34.63;;
40373;SDS011;26079;45.958;12.492;2023-05-13T07:06:48;42.42;;;40.22;;
40373;SDS011;26079;45.958;12.492;2023-05-13T07:09:15;38.50;;;36.42;;
40373;SDS011;26079;45.958;12.492;2023-05-13T07:11:41;47.80;;;45.35;;
40373;SDS011;26079;45.958;12.492;2023-05-13T07:14:07;46.63;;;44.13;;
40373;SDS011;26079;45.958;12.492;2023-05-13T07:16:32;17.85;;;16.90;;
40373;SDS011;26079;45.958;12.492;2023-05-13T07:18:58;11.50;;;10.80;;
40373;SDS011;26079;45.958;12.492;2023-05-13T07:21:24;11.35;;;7.32;;
40373;SDS011;26079;45.958;12.492;2023-05-13T07:23:49;11.57;;;10.73;;
40373;SDS011;26079;45.958;12.492;2023-05-13T07:26:15;2.70;;;2.53;;
40373;SDS011;26079;45.958;12.492;2023-05-13T07:28:40;12.38;;;11.73;;
40373;SDS011;26079;45.958;12.492;2023-05-13T07:31:07;28.98;;;27.52;;
40373;SDS011;26079;45.958;12.492;2023-05-13T07:33:32;48.95;;;46.42;;
40373;SDS011;26079;45.958;12.492;2023-05-13T07:35:59;42.53;;;40.40;;
40373;SDS011;26079;45.958;12.492;2023-05-13T07:38:25;22.75;;;21.55;;
40373;SDS011;26079;45.958;12.492;2023-05-13T07:40:51;10.18;;;9.38;;
40373;SDS011;26079;45.958;12.492;2023-05-13T07:43:16;19.00;;;18.02;;
40373;SDS011;26079;45.958;12.492;2023-05-13T07:45:47;9.13;;;8.70;;
40373;SDS011;26079;45.958;12.492;2023-05-13T07:48:14;1.58;;;1.00;;
40373;SDS011;26079;45.958;12.492;2023-05-13T07:50:39;21.92;;;20.83;;
40373;SDS011;26079;45.958;12.492;2023-05-13T07:53:05;3.88;;;3.08;;
40373;SDS011;26079;45.958;12.492;2023-05-13T07:55:31;15.88;;;14.88;;
40373;SDS011;26079;45.958;12.492;2023-05-13T07:57:57;11.60;;;10.93;;
40373;SDS011;26079;45.958;12.492;2023-05-13T08:00:22;9.80;;;9.30;;
40373;SDS011;26079;45.958;12.492;2023-05-13T08:02:48;0.60;;;0.32;;
40373;SDS011;26079;45.958;12.492;2023-05-13T08:05:14;0.65;;;0.40;;
40373;SDS011;26079;45.958;12.492;2023-05-13T08:07:39;0.60;;;0.60;;
40373;SDS011;26079;45.958;12.492;2023-05-13T08:10:05;0.95;;;0.70;;
40373;SDS011;26079;45.958;12.492;2023-05-13T08:12:31;4.20;;;4.03;;
40373;SDS011;26079;45.958;12.492;2023-05-13T08:14:57;34.05;;;32.35;;
40373;SDS011;26079;45.958;12.492;2023-05-13T08:17:22;0.95;;;0.88;;
40373;SDS011;26079;45.958;12.492;2023-05-13T08:19:48;3.92;;;3.65;;
40373;SDS011;26079;45.958;12.492;2023-05-13T08:22:14;0.88;;;0.50;;
40373;SDS011;26079;45.958;12.492;2023-05-13T08:24:39;1.25;;;1.20;;
40373;SDS011;26079;45.958;12.492;2023-05-13T08:27:07;2.95;;;2.75;;
40373;SDS011;26079;45.958;12.492;2023-05-13T08:29:32;1.90;;;1.33;;
40373;SDS011;26079;45.958;12.492;2023-05-13T08:31:58;0.40;;;0.38;;
40373;SDS011;26079;45.958;12.492;2023-05-13T08:34:23;0.90;;;0.90;;
40373;SDS011;26079;45.958;12.492;2023-05-13T08:36:49;8.52;;;8.13;;
40373;SDS011;26079;45.958;12.492;2023-05-13T08:39:14;0.63;;;0.60;;
40373;SDS011;26079;45.958;12.492;2023-05-13T08:41:40;1.05;;;0.75;;
40373;SDS011;26079;45.958;12.492;2023-05-13T08:44:08;0.73;;;0.55;;
40373;SDS011;26079;45.958;12.492;2023-05-13T08:46:37;2.72;;;2.53;;
40373;SDS011;26079;45.958;12.492;2023-05-13T08:49:05;6.40;;;6.13;;
40373;SDS011;26079;45.958;12.492;2023-05-13T08:51:31;1.65;;;0.93;;
40373;SDS011;26079;45.958;12.492;2023-05-13T08:53:57;26.27;;;24.55;;
40373;SDS011;26079;45.958;12.492;2023-05-13T08:56:25;12.23;;;9.20;;
40373;SDS011;26079;45.958;12.492;2023-05-13T08:58:53;6.20;;;5.93;;
40373;SDS011;26079;45.958;12.492;2023-05-13T09:01:19;12.68;;;12.07;;
40373;SDS011;26079;45.958;12.492;2023-05-13T09:04:05;22.40;;;21.27;;
40373;SDS011;26079;45.958;12.492;2023-05-13T09:06:32;2.05;;;1.95;;
40373;SDS011;26079;45.958;12.492;2023-05-13T09:08:58;3.83;;;3.63;;
40373;SDS011;26079;45.958;12.492;2023-05-13T09:11:24;2.85;;;2.67;;
40373;SDS011;26079;45.958;12.492;2023-05-13T09:14:02;27.63;;;26.25;;
40373;SDS011;26079;45.958;12.492;2023-05-13T09:16:31;4.60;;;4.35;;
40373;SDS011;26079;45.958;12.492;2023-05-13T09:19:01;6.05;;;5.47;;
40373;SDS011;26079;45.958;12.492;2023-05-13T09:21:29;35.78;;;33.95;;
40373;SDS011;26079;45.958;12.492;2023-05-13T09:24:06;19.52;;;18.52;;
40373;SDS011;26079;45.958;12.492;2023-05-13T09:26:43;0.65;;;0.65;;
40373;SDS011;26079;45.958;12.492;2023-05-13T09:29:27;5.28;;;5.03;;
40373;SDS011;26079;45.958;12.492;2023-05-13T09:31:57;5.60;;;5.05;;
40373;SDS011;26079;45.958;12.492;2023-05-13T09:39:25;9.90;;;9.23;;
40373;SDS011;26079;45.958;12.492;2023-05-13T09:41:51;7.30;;;6.82;;
40373;SDS011;26079;45.958;12.492;2023-05-13T09:44:17;16.23;;;15.40;;
40373;SDS011;26079;45.958;12.492;2023-05-13T09:46:43;5.93;;;5.63;;
40373;SDS011;26079;45.958;12.492;2023-05-13T09:49:09;13.48;;;12.70;;
40373;SDS011;26079;45.958;12.492;2023-05-13T09:51:35;1.25;;;1.15;;
40373;SDS011;26079;45.958;12.492;2023-05-13T09:54:05;11.93;;;11.32;;
40373;SDS011;26079;45.958;12.492;2023-05-13T09:56:33;0.90;;;0.90;;
40373;SDS011;26079;45.958;12.492;2023-05-13T09:59:00;2.13;;;1.90;;
40373;SDS011;26079;45.958;12.492;2023-05-13T10:01:26;8.77;;;8.38;;
40373;SDS011;26079;45.958;12.492;2023-05-13T10:03:56;11.52;;;11.00;;
40373;SDS011;26079;45.958;12.492;2023-05-13T10:06:24;9.82;;;9.30;;
40373;SDS011;26079;45.958;12.492;2023-05-13T10:08:52;5.43;;;5.13;;
40373;SDS011;26079;45.958;12.492;2023-05-13T10:11:19;12.50;;;11.82;;
40373;SDS011;26079;45.958;12.492;2023-05-13T10:13:55;47.10;;;44.65;;
40373;SDS011;26079;45.958;12.492;2023-05-13T10:16:24;2.83;;;1.90;;
40373;SDS011;26079;45.958;12.492;2023-05-13T10:18:51;8.50;;;8.07;;
40373;SDS011;26079;45.958;12.492;2023-05-13T10:21:20;9.25;;;8.70;;
40373;SDS011;26079;45.958;12.492;2023-05-13T10:23:47;12.02;;;11.10;;
40373;SDS011;26079;45.958;12.492;2023-05-13T10:26:16;2.30;;;2.13;;
40373;SDS011;26079;45.958;12.492;2023-05-13T10:28:42;1.33;;;1.15;;
40373;SDS011;26079;45.958;12.492;2023-05-13T10:31:08;1.02;;;1.02;;
40373;SDS011;26079;45.958;12.492;2023-05-13T10:33:34;8.90;;;8.50;;
40373;SDS011;26079;45.958;12.492;2023-05-13T10:36:07;0.80;;;0.80;;
40373;SDS011;26079;45.958;12.492;2023-05-13T10:41:25;12.10;;;11.48;;
40373;SDS011;26079;45.958;12.492;2023-05-13T10:44:07;5.15;;;4.47;;
40373;SDS011;26079;45.958;12.492;2023-05-13T10:46:33;0.98;;;0.80;;
40373;SDS011;26079;45.958;12.492;2023-05-13T10:48:58;5.68;;;5.40;;
40373;SDS011;26079;45.958;12.492;2023-05-13T10:51:24;0.98;;;0.98;;
40373;SDS011;26079;45.958;12.492;2023-05-13T10:53:52;1.85;;;1.08;;
40373;SDS011;26079;45.958;12.492;2023-05-13T10:56:19;1.63;;;1.10;;
40373;SDS011;26079;45.958;12.492;2023-05-13T10:58:56;1.15;;;0.43;;
40373;SDS011;26079;45.958;12.492;2023-05-13T11:01:28;1.10;;;1.00;;
40373;SDS011;26079;45.958;12.492;2023-05-13T11:04:03;1.30;;;0.70;;
40373;SDS011;26079;45.958;12.492;2023-05-13T11:09:12;1.35;;;1.25;;
40373;SDS011;26079;45.958;12.492;2023-05-13T11:11:47;1.00;;;0.75;;
40373;SDS011;26079;45.958;12.492;2023-05-13T11:14:18;1.25;;;1.13;;
40373;SDS011;26079;45.958;12.492;2023-05-13T11:17:06;2.65;;;1.80;;
40373;SDS011;26079;45.958;12.492;2023-05-13T11:19:37;2.20;;;1.98;;
40373;SDS011;26079;45.958;12.492;2023-05-13T11:22:11;0.60;;;0.50;;
40373;SDS011;26079;45.958;12.492;2023-05-13T11:24:38;0.50;;;0.50;;
40373;SDS011;26079;45.958;12.492;2023-05-13T11:27:17;1.40;;;0.80;;
40373;SDS011;26079;45.958;12.492;2023-05-13T11:29:51;2.42;;;1.73;;
40373;SDS011;26079;45.958;12.492;2023-05-13T11:35:23;0.95;;;0.85;;
40373;SDS011;26079;45.958;12.492;2023-05-13T11:37:50;1.60;;;1.50;;
40373;SDS011;26079;45.958;12.492;2023-05-13T11:40:26;9.07;;;8.65;;
40373;SDS011;26079;45.958;12.492;2023-05-13T11:42:55;5.85;;;2.58;;
40373;SDS011;26079;45.958;12.492;2023-05-13T11:45:23;6.35;;;6.00;;
40373;SDS011;26079;45.958;12.492;2023-05-13T11:47:51;2.67;;;2.13;;
40373;SDS011;26079;45.958;12.492;2023-05-13T11:52:54;2.78;;;2.55;;
40373;SDS011;26079;45.958;12.492;2023-05-13T11:55:31;2.03;;;1.83;;
40373;SDS011;26079;45.958;12.492;2023-05-13T11:57:59;2.08;;;1.98;;
40373;SDS011;26079;45.958;12.492;2023-05-13T12:00:25;4.00;;;3.80;;
40373;SDS011;26079;45.958;12.492;2023-05-13T12:02:59;2.70;;;1.60;;
40373;SDS011;26079;45.958;12.492;2023-05-13T12:05:27;6.20;;;5.82;;
40373;SDS011;26079;45.958;12.492;2023-05-13T12:07:55;1.27;;;1.27;;
40373;SDS011;26079;45.958;12.492;2023-05-13T12:10:22;1.15;;;1.05;;
40373;SDS011;26079;45.958;12.492;2023-05-13T12:12:48;1.55;;;1.40;;
40373;SDS011;26079;45.958;12.492;2023-05-13T12:15:15;3.00;;;1.92;;
40373;SDS011;26079;45.958;12.492;2023-05-13T12:17:42;1.45;;;1.35;;
40373;SDS011;26079;45.958;12.492;2023-05-13T12:20:13;1.75;;;1.65;;
40373;SDS011;26079;45.958;12.492;2023-05-13T12:28:06;1.65;;;1.55;;
40373;SDS011;26079;45.958;12.492;2023-05-13T12:33:18;0.93;;;0.60;;
40373;SDS011;26079;45.958;12.492;2023-05-13T12:35:46;2.50;;;2.40;;
40373;SDS011;26079;45.958;12.492;2023-05-13T12:38:14;0.98;;;0.80;;
40373;SDS011;26079;45.958;12.492;2023-05-13T12:43:11;0.73;;;0.60;;
40373;SDS011;26079;45.958;12.492;2023-05-13T12:45:42;2.08;;;0.95;;
40373;SDS011;26079;45.958;12.492;2023-05-13T12:48:09;9.13;;;8.68;;
40373;SDS011;26079;45.958;12.492;2023-05-13T12:50:35;1.50;;;1.50;;
40373;SDS011;26079;45.958;12.492;2023-05-13T12:53:02;3.33;;;0.90;;
40373;SDS011;26079;45.958;12.492;2023-05-13T12:55:27;2.70;;;1.73;;
40373;SDS011;26079;45.958;12.492;2023-05-13T12:57:54;1.45;;;1.35;;
40373;SDS011;26079;45.958;12.492;2023-05-13T13:00:24;1.02;;;1.02;;
40373;SDS011;26079;45.958;12.492;2023-05-13T13:02:52;1.25;;;1.15;;
40373;SDS011;26079;45.958;12.492;2023-05-13T13:08:18;2.70;;;2.50;;
40373;SDS011;26079;45.958;12.492;2023-05-13T13:10:43;1.48;;;1.40;;
40373;SDS011;26079;45.958;12.492;2023-05-13T13:13:09;2.25;;;1.95;;
40373;SDS011;26079;45.958;12.492;2023-05-13T13:15:35;1.65;;;1.55;;
40373;SDS011;26079;45.958;12.492;2023-05-13T13:18:01;2.50;;;1.52;;
40373;SDS011;26079;45.958;12.492;2023-05-13T13:20:27;1.58;;;1.48;;
40373;SDS011;26079;45.958;12.492;2023-05-13T13:22:52;9.38;;;8.82;;
40373;SDS011;26079;45.958;12.492;2023-05-13T13:25:18;1.63;;;1.15;;
40373;SDS011;26079;45.958;12.492;2023-05-13T13:27:44;1.63;;;1.52;;
40373;SDS011;26079;45.958;12.492;2023-05-13T13:30:10;0.98;;;0.98;;
40373;SDS011;26079;45.958;12.492;2023-05-13T13:32:37;2.20;;;1.67;;
40373;SDS011;26079;45.958;12.492;2023-05-13T13:35:02;3.45;;;0.95;;
40373;SDS011;26079;45.958;12.492;2023-05-13T13:37:29;1.33;;;0.80;;
40373;SDS011;26079;45.958;12.492;2023-05-13T13:39:55;2.55;;;2.35;;
40373;SDS011;26079;45.958;12.492;2023-05-13T13:42:20;2.97;;;2.30;;
40373;SDS011;26079;45.958;12.492;2023-05-13T13:44:46;2.45;;;2.25;;
40373;SDS011;26079;45.958;12.492;2023-05-13T13:47:13;2.22;;;1.90;;
40373;SDS011;26079;45.958;12.492;2023-05-13T13:49:39;6.20;;;5.68;;
40373;SDS011;26079;45.958;12.492;2023-05-13T13:52:04;8.25;;;7.68;;
40373;SDS011;26079;45.958;12.492;2023-05-13T13:54:30;10.40;;;9.80;;
40373;SDS011;26079;45.958;12.492;2023-05-13T13:56:56;12.40;;;11.77;;
40373;SDS011;26079;45.958;12.492;2023-05-13T13:59:22;38.83;;;36.72;;
40373;SDS011;26079;45.958;12.492;2023-05-13T14:01:48;39.08;;;36.97;;
40373;SDS011;26079;45.958;12.492;2023-05-13T14:04:15;3.03;;;2.88;;
40373;SDS011;26079;45.958;12.492;2023-05-13T14:06:44;9.18;;;8.73;;
40373;SDS011;26079;45.958;12.492;2023-05-13T14:09:10;4.43;;;4.22;;
40373;SDS011;26079;45.958;12.492;2023-05-13T14:11:36;13.73;;;12.75;;
40373;SDS011;26079;45.958;12.492;2023-05-13T14:14:02;1.55;;;1.40;;
40373;SDS011;26079;45.958;12.492;2023-05-13T14:16:27;5.15;;;4.90;;
40373;SDS011;26079;45.958;12.492;2023-05-13T14:18:53;4.32;;;4.07;;
40373;SDS011;26079;45.958;12.492;2023-05-13T14:21:19;5.95;;;5.63;;
40373;SDS011;26079;45.958;12.492;2023-05-13T14:23:44;1.65;;;1.55;;
40373;SDS011;26079;45.958;12.492;2023-05-13T14:26:10;1.45;;;1.25;;
40373;SDS011;26079;45.958;12.492;2023-05-13T14:28:39;1.23;;;1.15;;
40373;SDS011;26079;45.958;12.492;2023-05-13T14:31:16;1.15;;;0.93;;
40373;SDS011;26079;45.958;12.492;2023-05-13T14:33:53;1.75;;;1.65;;
40373;SDS011;26079;45.958;12.492;2023-05-13T14:36:19;2.58;;;2.40;;
40373;SDS011;26079;45.958;12.492;2023-05-13T14:38:46;4.78;;;3.40;;
40373;SDS011;26079;45.958;12.492;2023-05-13T14:41:12;2.50;;;0.98;;
40373;SDS011;26079;45.958;12.492;2023-05-13T14:43:43;0.88;;;0.88;;
40373;SDS011;26079;45.958;12.492;2023-05-13T14:46:10;2.10;;;0.80;;
40373;SDS011;26079;45.958;12.492;2023-05-13T14:48:36;1.80;;;1.67;;
40373;SDS011;26079;45.958;12.492;2023-05-13T14:51:01;2.28;;;2.17;;
40373;SDS011;26079;45.958;12.492;2023-05-13T14:53:27;3.45;;;2.03;;
40373;SDS011;26079;45.958;12.492;2023-05-13T14:55:53;2.33;;;1.90;;